Actual water levels and discharges of Morava river

Lanžhot

Date and time (UTC) H (cm) Q (m3/s)
21. 7. 2019 17:10 10 10
21. 7. 2019 17:00 10 10
21. 7. 2019 16:00 10 10
21. 7. 2019 15:00 11 10
21. 7. 2019 14:00 11 10
21. 7. 2019 13:00 11 10
21. 7. 2019 12:00 12 10
21. 7. 2019 11:00 11 10
21. 7. 2019 10:00 11 10
21. 7. 2019 09:00 11 10
21. 7. 2019 08:00 11 10
21. 7. 2019 07:00 11 10
21. 7. 2019 06:00 11 10
21. 7. 2019 05:00 11 10

H - vodni stav, Q - discharge

Strážnice

Date and time (UTC) H (cm) Q (m3/s)
21. 7. 2019 17:40 88 10
21. 7. 2019 17:00 88 10
21. 7. 2019 16:00 88 10
21. 7. 2019 15:00 88 10
21. 7. 2019 14:00 88 10
21. 7. 2019 13:00 88 10
21. 7. 2019 12:00 88 10
21. 7. 2019 11:00 88 10
21. 7. 2019 10:00 88 10
21. 7. 2019 09:00 88 10
21. 7. 2019 08:00 88 10
21. 7. 2019 07:00 88 10
21. 7. 2019 06:00 88 10
21. 7. 2019 05:00 88 10

H - vodni stav, Q - discharge

Spytihněv

Date and time (UTC) H (cm) Q (m3/s)
21. 7. 2019 17:40 75 8
21. 7. 2019 17:00 91 11
21. 7. 2019 16:00 99 13
21. 7. 2019 15:00 102 15
21. 7. 2019 14:00 96 12
21. 7. 2019 13:00 68 7
21. 7. 2019 12:00 74 8
21. 7. 2019 11:00 77 8
21. 7. 2019 10:00 72 8
21. 7. 2019 09:00 69 7
21. 7. 2019 08:00 73 8
21. 7. 2019 07:00 78 9
21. 7. 2019 06:00 74 8
21. 7. 2019 05:00 71 8

H - vodni stav, Q - discharge

Kroměříž

Date and time (UTC) H (cm) Q (m3/s)
21. 7. 2019 17:50 125 12
21. 7. 2019 17:00 124 12
21. 7. 2019 16:00 123 11
21. 7. 2019 15:00 127 12
21. 7. 2019 14:00 132 14
21. 7. 2019 13:00 120 11
21. 7. 2019 12:00 119 11
21. 7. 2019 11:00 118 11
21. 7. 2019 10:00 119 11
21. 7. 2019 09:00 119 11
21. 7. 2019 08:00 118 11
21. 7. 2019 07:00 119 11
21. 7. 2019 06:00 119 11
21. 7. 2019 05:00 120 11

H - vodni stav, Q - discharge

Olomouc-Nové Sady tok

Date and time (UTC) H (cm) Q (m3/s)
21. 7. 2019 17:50 77 5
21. 7. 2019 17:00 79 6
21. 7. 2019 16:00 79 6
21. 7. 2019 15:00 79 6
21. 7. 2019 14:00 80 6
21. 7. 2019 13:00 80 6
21. 7. 2019 12:00 79 6
21. 7. 2019 11:00 79 6
21. 7. 2019 10:00 79 6
21. 7. 2019 09:00 79 6
21. 7. 2019 08:00 76 5
21. 7. 2019 07:00 74 5
21. 7. 2019 06:00 74 5
21. 7. 2019 05:00 75 5

H - vodni stav, Q - discharge

Moravičany

Date and time (UTC) H (cm) Q (m3/s)
21. 7. 2019 17:50 76 4
21. 7. 2019 17:00 76 4
21. 7. 2019 16:00 76 4
21. 7. 2019 15:00 76 4
21. 7. 2019 14:00 76 4
21. 7. 2019 13:00 76 4
21. 7. 2019 12:00 76 4
21. 7. 2019 11:00 76 4
21. 7. 2019 10:00 76 4
21. 7. 2019 09:00 76 4
21. 7. 2019 08:00 76 4
21. 7. 2019 07:00 76 4
21. 7. 2019 06:00 76 4
21. 7. 2019 05:00 76 4

H - vodni stav, Q - discharge
Source data
Labe Basin Vltava Basin ČHMÚ